Axtell, KS

2:14 AM CDT on July 12, 2014 (GMT -0500)
Brenner (KFNB) Elev 984 ft | 40.08 °N, 95.59 °W | Change Station

Current weather conditions updated 21 minutes ago

Clear
Clear
78 °F
Feels Like 78 °F
N
10
Wind Variable Wind from South

Today is forecast to be Warmer than yesterday. Showers and thunderstorms late tonight.

Today
High -- | Low -- °F
--% Chance of Precip.
Yesterday
High -- | Low -- °F
Precip. -- in
6:07 AM 8:54 PM
Full, 100% visible
Pressure 29.97 in
Visibility 10.0 miles
Clouds Clear
Dew Point 70 °F
Humidity 76%
Rainfall 0.00 in
Snow Depth Not available.
UV 0 out of 12
Pollen 3.90 out of 12
Air Quality Not available.
Flu Activity No Activity
METAR KFNB 120653Z AUTO 19009KT 10SM CLR 26/21 A3000 RMK AO2 SLP147 T02560211

More Conditions Fewer Conditions

Pressure 29.97 in
Visibility 10.0 miles
Clouds Clear
Dew Point 70 °F
Humidity 76%
Rainfall 0.00 in
Snow Depth Not available.
UV 0 out of 12
Pollen 3.90 out of 12
Air Quality Not available.
Flu Activity No Activity
METAR KFNB 120653Z AUTO 19009KT 10SM CLR 26/21 A3000 RMK AO2 SLP147 T02560211

More Conditions Fewer Conditions

10-Day Weather Forecast

Almanac

Astronomy

Jul. 12, 2014 Rise Set
Actual Time 6:07 AM CDT 8:54 PM CDT
Civil Twilight 5:35 AM CDT 9:25 PM CDT
Nautical Twilight 4:54 AM CDT 10:05 PM CDT
Astronomical Twilight 4:08 AM CDT 10:51 PM CDT
Moon 8:57 PM CDT 6:27 AM CDT
Length of Visible Light 15h 50m
Length of Day
14h 46m
Tomorrow will be 1m 13s shorter.
Full, 100% of the Moon is Illuminated
Today
Full
Jul 12
Full
Jul 18
Last Quarter
Jul 26
New
Aug 3
First Quarter

Today's Extremes

State Highs State Lows

Community

WunderPhotos

Upload Photos

1,732,718 photos uploaded!

Nearby

Snow Depth

Station Depth Elevation
No new snow has been reported.

Earthquake Activity

City Distance Mag. Time & Date
No recent earthquake activity has been reported nearby.
Minimum magnitude displayed is 2.5.

Coastal Water Temperatures

Place Temperature
No Stations Reporting

Nearby Weather Stations

Station Location Temp. Heat Index Dew Point Humidity Wind Precip. Elev Updated Type
MesoWest AXTELL , Axtell, KS 74 °F 72 °F - - North  at  - 0.00 in / hr 1337 ft 1:15 AM CDT MADIS
MesoWest CENTRALIA LAKE , Centralia, KS 78 °F 80 °F 68 °F 71% SSW  at  8 mph 0.00 in / hr 1302 ft 12:00 AM CDT MADIS
MesoWest WINFRD , Frankfort, KS 76 °F 74 °F - - North  at  - 0.00 in / hr 1174 ft 1:00 AM CDT MADIS
MesoWest SABTHA , Sabetha, KS 77 °F 75 °F - - North  at  - 0.00 in / hr 1312 ft 12:30 AM CDT MADIS

Show More Stations Show Fewer Stations